Crigler, Arkansas
Current Conditions -  °F | °C
As of 9:53 PM on Friday 24 Oct 2014 (Local Time) from KPBF Reporting Station
Clear Clear  
Wind Chill: 57°   Ceiling: Unl
Heat Index: 57°   Visibility: 9mi
Dew Point: 54°   Wind: 5mph
Humidity: 89%   Direction: 180°S
Pressure: 30.11"   Gusts: NA
Location:  33.924°N, 91.8685°W
Report Text: KPBF 250253Z AUTO 18004KT 9SM CLR 14/12 A3011 RMK AO2 SLP195 T01390122 51003
Loading
Personal Weather Stations






























Interactive Weather Map
Tropical Storm Tracking
New forecast layout! Learn more

10-Day Weather Forecast

Advertisements
Track Severe Weather on mobile